Terminal Aerodrome Forecast
Issued by NWS Tulsa, OK

Home | Current Version | Previous Version | Text Only | Print | Product List | Glossary On
Versions: 1 2 3 4 5 6 7 8 9 10 11 12 13 14 15
327
FTUS44 KTSA 171738
TAFFSM
TAF
KFSM 171738Z 1718/1818 28006KT P6SM OVC018
     FM180000 VRB03KT P6SM BKN250
     FM180600 VRB03KT P6SM SCT040 BKN120 PROB30 1806/1812 5SM -RA BR
      BKN030
     FM181200 08004KT P6SM OVC015=

USA.gov is the U.S. government's official web portal to all federal, state and local government web resources and services.